createdAt,value
2023-01-20T00:00:31.979Z,13.43
2023-01-20T00:03:16.244Z,13.07
2023-01-20T00:06:00.924Z,13.46
2023-01-20T00:08:46.619Z,13.74
2023-01-20T00:11:30.970Z,13.38
2023-01-20T00:14:15.418Z,13.65
2023-01-20T00:17:00.343Z,13.64
2023-01-20T00:19:44.391Z,13.49
2023-01-20T00:22:28.474Z,13.46
2023-01-20T00:25:14.139Z,14.07
2023-01-20T00:27:58.392Z,14.06
2023-01-20T00:30:42.623Z,13.70
2023-01-20T00:33:26.560Z,13.87
2023-01-20T00:36:10.990Z,13.86
2023-01-20T00:38:55.070Z,13.90
2023-01-20T00:41:40.278Z,14.02
2023-01-20T00:44:24.147Z,13.92
2023-01-20T00:47:08.409Z,13.98
2023-01-20T00:49:52.325Z,13.87
2023-01-20T00:52:36.156Z,13.75
2023-01-20T00:55:19.982Z,13.71
2023-01-20T00:58:05.605Z,13.65
2023-01-20T01:00:50.381Z,13.36
2023-01-20T01:03:34.381Z,13.84
2023-01-20T01:06:19.109Z,13.83
2023-01-20T01:09:02.912Z,13.72
2023-01-20T01:11:46.889Z,13.77
2023-01-20T01:14:33.964Z,13.38
2023-01-20T01:17:18.226Z,13.51
2023-01-20T01:20:02.348Z,13.78
2023-01-20T01:22:47.436Z,13.97
2023-01-20T01:25:31.337Z,14.07
2023-01-20T01:28:15.561Z,14.05
2023-01-20T01:31:03.538Z,13.60
2023-01-20T01:33:47.426Z,13.90
2023-01-20T01:36:31.114Z,14.00
2023-01-20T01:39:14.877Z,13.87
2023-01-20T01:41:58.860Z,13.89
2023-01-20T01:45:30.316Z,13.73
2023-01-20T01:48:15.872Z,13.90
2023-01-20T01:51:04.052Z,13.88
2023-01-20T01:53:53.853Z,13.87
2023-01-20T01:56:40.161Z,14.08
2023-01-20T01:59:24.054Z,13.84
2023-01-20T02:02:07.881Z,13.87
2023-01-20T02:04:53.101Z,14.03
2023-01-20T02:07:37.608Z,13.86
2023-01-20T02:10:21.331Z,13.64
2023-01-20T02:13:06.472Z,13.75
2023-01-20T02:16:04.415Z,13.49
2023-01-20T02:19:02.027Z,13.37
2023-01-20T02:22:12.691Z,13.35
2023-01-20T02:25:33.506Z,12.84
2023-01-20T02:28:40.740Z,13.13
2023-01-20T02:31:49.436Z,13.04
2023-01-20T02:34:39.484Z,12.91
2023-01-20T02:37:27.254Z,12.95
2023-01-20T02:40:23.918Z,12.86
2023-01-20T02:43:11.737Z,12.87
2023-01-20T02:46:03.185Z,12.63
2023-01-20T02:48:53.092Z,12.84
2023-01-20T02:51:44.242Z,12.83
2023-01-20T02:54:31.939Z,12.77
2023-01-20T02:57:20.142Z,12.82
2023-01-20T03:00:09.044Z,12.72
2023-01-20T03:02:55.926Z,12.79
2023-01-20T03:05:46.975Z,12.77
2023-01-20T03:08:34.562Z,12.76
2023-01-20T03:11:18.420Z,12.67
2023-01-20T03:14:07.477Z,12.65
2023-01-20T03:16:51.652Z,12.71
2023-01-20T03:19:36.405Z,12.57
2023-01-20T03:22:20.294Z,12.73
2023-01-20T03:25:06.581Z,12.47
2023-01-20T03:27:50.541Z,12.57
2023-01-20T03:30:34.433Z,12.56
2023-01-20T03:33:19.528Z,12.61
2023-01-20T03:36:03.730Z,12.55
2023-01-20T03:38:48.294Z,12.53
2023-01-20T03:41:45.584Z,12.61
2023-01-20T03:44:39.632Z,12.65
2023-01-20T03:47:33.729Z,12.51
2023-01-20T03:50:31.159Z,12.34
2023-01-20T03:53:24.203Z,12.16
2023-01-20T03:56:15.679Z,12.21
2023-01-20T03:59:03.500Z,12.50
2023-01-20T04:01:48.338Z,12.09
2023-01-20T04:04:36.065Z,12.15
2023-01-20T04:07:25.877Z,12.20
2023-01-20T04:10:14.347Z,12.23
2023-01-20T04:12:58.358Z,12.25
2023-01-20T04:15:45.650Z,12.17
2023-01-20T04:18:29.430Z,12.30
2023-01-20T04:21:19.470Z,12.12
2023-01-20T04:24:08.329Z,12.05
2023-01-20T04:26:52.142Z,12.05
2023-01-20T04:29:36.040Z,12.15
2023-01-20T04:32:21.511Z,12.23
2023-01-20T04:35:05.741Z,12.17
2023-01-20T04:37:49.572Z,12.27
2023-01-20T04:40:33.709Z,12.44
2023-01-20T04:43:18.529Z,12.01
2023-01-20T04:46:02.267Z,11.91
2023-01-20T04:48:47.436Z,12.20
2023-01-20T04:51:32.975Z,12.28
2023-01-20T04:54:16.894Z,12.34
2023-01-20T04:57:00.873Z,12.26
2023-01-20T04:59:44.926Z,11.94
2023-01-20T05:02:29.062Z,12.12
2023-01-20T05:05:15.232Z,12.39
2023-01-20T05:07:59.888Z,12.19
2023-01-20T05:10:43.988Z,12.33
2023-01-20T05:13:27.955Z,12.54
2023-01-20T05:16:12.867Z,12.47
2023-01-20T05:18:56.777Z,12.32
2023-01-20T05:21:42.859Z,12.26
2023-01-20T05:24:26.743Z,12.53
2023-01-20T05:27:10.767Z,12.34
2023-01-20T05:29:54.862Z,12.74
2023-01-20T05:32:39.061Z,12.74
2023-01-20T05:35:23.248Z,12.86
2023-01-20T05:38:08.734Z,12.70
2023-01-20T05:40:52.800Z,12.32
2023-01-20T05:43:37.487Z,12.89
2023-01-20T05:46:21.537Z,12.68
2023-01-20T05:49:05.591Z,12.80
2023-01-20T05:51:49.703Z,12.57
2023-01-20T05:54:35.198Z,12.65
2023-01-20T05:57:19.282Z,12.49
2023-01-20T06:00:03.501Z,12.80
2023-01-20T06:02:48.885Z,12.73
2023-01-20T06:05:33.066Z,12.71
2023-01-20T06:08:17.072Z,12.51
2023-01-20T06:11:02.979Z,12.74
2023-01-20T06:13:48.337Z,12.86
2023-01-20T06:16:32.363Z,12.85
2023-01-20T06:19:16.647Z,12.97
2023-01-20T06:22:00.584Z,13.28
2023-01-20T06:24:44.628Z,13.16
2023-01-20T06:27:30.090Z,13.03
2023-01-20T06:30:14.528Z,12.98
2023-01-20T06:32:58.540Z,13.04
2023-01-20T06:35:42.549Z,13.27
2023-01-20T06:38:28.438Z,13.29
2023-01-20T06:41:13.616Z,13.06
2023-01-20T06:43:59.239Z,12.89
2023-01-20T06:46:43.375Z,13.20
2023-01-20T06:49:27.606Z,13.33
2023-01-20T06:52:11.719Z,13.38
2023-01-20T06:54:55.759Z,13.59
2023-01-20T06:57:39.671Z,13.56
2023-01-20T07:00:25.784Z,13.79
2023-01-20T07:03:09.858Z,13.68
2023-01-20T07:05:58.729Z,13.85
2023-01-20T07:08:44.166Z,13.89
2023-01-20T07:11:28.594Z,14.10
2023-01-20T07:14:12.330Z,13.70
2023-01-20T07:16:57.424Z,13.96
2023-01-20T07:19:41.269Z,14.01
2023-01-20T07:22:25.132Z,14.07
2023-01-20T07:25:09.461Z,13.86
2023-01-20T07:27:53.312Z,13.91
2023-01-20T07:30:37.198Z,13.56
2023-01-20T07:33:22.550Z,13.95
2023-01-20T07:36:07.996Z,13.84
2023-01-20T07:38:52.622Z,13.90
2023-01-20T07:41:36.424Z,13.90
2023-01-20T07:44:20.153Z,14.36
2023-01-20T07:47:03.853Z,14.30
2023-01-20T07:49:49.328Z,14.27
2023-01-20T07:52:33.413Z,14.32
2023-01-20T07:55:17.677Z,13.88
2023-01-20T07:58:02.359Z,14.07
2023-01-20T08:00:48.902Z,14.11
2023-01-20T08:03:32.908Z,14.08
2023-01-20T08:06:20.037Z,13.98
2023-01-20T08:09:04.385Z,13.75
2023-01-20T08:11:48.365Z,13.75
2023-01-20T08:14:32.255Z,14.60
2023-01-20T08:17:16.736Z,14.01
2023-01-20T08:20:00.807Z,14.30
2023-01-20T08:22:46.460Z,13.92
2023-01-20T08:25:30.445Z,14.41
2023-01-20T08:28:14.558Z,13.83
2023-01-20T08:31:07.283Z,14.49
2023-01-20T08:33:54.612Z,14.55
2023-01-20T08:36:41.020Z,13.89
2023-01-20T08:39:26.511Z,14.11
2023-01-20T08:42:10.528Z,14.53
2023-01-20T08:44:54.880Z,14.60
2023-01-20T08:47:40.249Z,14.61
2023-01-20T08:50:24.842Z,14.45
2023-01-20T08:53:08.931Z,14.48
2023-01-20T08:56:00.029Z,14.22
2023-01-20T08:58:45.028Z,14.36
2023-01-20T09:01:30.827Z,14.20
2023-01-20T09:04:14.875Z,14.30
2023-01-20T09:06:58.854Z,14.96
2023-01-20T09:09:42.776Z,14.65
2023-01-20T09:12:28.117Z,15.67
2023-01-20T09:15:13.943Z,15.65
2023-01-20T09:17:58.847Z,15.97
2023-01-20T09:20:42.640Z,16.12
2023-01-20T09:23:26.556Z,15.98
2023-01-20T09:26:10.528Z,15.96
2023-01-20T09:28:55.845Z,16.45
2023-01-20T09:31:41.132Z,16.32
2023-01-20T09:34:26.559Z,16.16
2023-01-20T09:37:28.049Z,16.11
2023-01-20T09:40:32.071Z,16.22
2023-01-20T09:43:46.780Z,16.18
2023-01-20T09:47:10.318Z,16.08
2023-01-20T09:50:32.083Z,15.98
2023-01-20T09:53:32.833Z,15.89
2023-01-20T09:56:19.077Z,15.81
2023-01-20T09:59:08.693Z,15.91
2023-01-20T10:01:58.059Z,15.92
2023-01-20T10:04:45.012Z,15.79
2023-01-20T10:07:36.493Z,16.11
2023-01-20T10:10:25.000Z,16.65
2023-01-20T10:13:15.659Z,16.51
2023-01-20T10:16:03.461Z,16.54
2023-01-20T10:18:53.128Z,16.29
2023-01-20T10:21:42.990Z,16.08
2023-01-20T10:24:33.537Z,15.99
2023-01-20T10:27:17.453Z,16.13
2023-01-20T10:30:07.497Z,16.47
2023-01-20T10:32:57.058Z,16.20
2023-01-20T10:35:45.699Z,15.84
2023-01-20T10:38:37.475Z,15.97
2023-01-20T10:41:28.180Z,16.14
2023-01-20T10:44:14.022Z,16.01
2023-01-20T10:47:16.226Z,16.36
2023-01-20T10:50:30.664Z,16.70
2023-01-20T10:53:48.660Z,16.73
2023-01-20T10:56:39.316Z,16.55
2023-01-20T10:59:30.270Z,16.55
2023-01-20T11:02:18.461Z,16.71
2023-01-20T11:05:05.966Z,16.57
2023-01-20T11:07:51.519Z,16.71
2023-01-20T11:10:36.760Z,16.78
2023-01-20T11:13:20.605Z,16.61
2023-01-20T11:16:12.889Z,16.71
2023-01-20T11:19:00.866Z,16.72
2023-01-20T11:21:44.827Z,16.53
2023-01-20T11:24:42.668Z,16.88
2023-01-20T11:27:33.243Z,16.84
2023-01-20T11:30:27.519Z,17.20
2023-01-20T11:33:20.604Z,17.20
2023-01-20T11:36:06.783Z,17.06
2023-01-20T11:38:52.019Z,16.84
2023-01-20T11:41:35.815Z,16.60
2023-01-20T11:44:22.531Z,16.60
2023-01-20T11:47:18.067Z,16.91
2023-01-20T11:50:28.310Z,16.64
2023-01-20T11:53:31.796Z,16.51
2023-01-20T11:56:20.857Z,16.66
2023-01-20T11:59:05.727Z,16.42
2023-01-20T12:01:58.589Z,16.32
2023-01-20T12:05:03.731Z,15.91
2023-01-20T12:07:50.680Z,15.74
2023-01-20T12:10:38.625Z,16.05
2023-01-20T12:13:27.357Z,16.58
2023-01-20T12:16:13.223Z,16.79
2023-01-20T12:19:05.162Z,16.83
2023-01-20T12:21:53.571Z,16.97
2023-01-20T12:25:03.173Z,17.00
2023-01-20T12:27:51.210Z,16.67
2023-01-20T12:30:44.027Z,16.82
2023-01-20T12:33:31.602Z,16.62
2023-01-20T12:36:41.082Z,17.21
2023-01-20T12:40:00.047Z,17.10
2023-01-20T12:43:12.926Z,16.66
2023-01-20T12:46:30.513Z,16.76
2023-01-20T12:49:46.633Z,16.52
2023-01-20T12:52:48.128Z,16.19
2023-01-20T12:55:41.005Z,16.26
2023-01-20T12:58:39.788Z,15.72
2023-01-20T13:01:41.213Z,15.01
2023-01-20T13:04:58.555Z,15.55
2023-01-20T13:08:00.923Z,15.50
2023-01-20T13:11:01.695Z,15.66
2023-01-20T13:13:59.987Z,15.48
2023-01-20T13:16:52.073Z,15.59
2023-01-20T13:19:39.545Z,16.06
2023-01-20T13:22:25.212Z,15.92
2023-01-20T13:25:19.117Z,15.85
2023-01-20T13:28:04.588Z,16.01
2023-01-20T13:30:51.740Z,16.07
2023-01-20T13:33:38.305Z,16.13
2023-01-20T13:36:23.942Z,15.61
2023-01-20T13:39:40.715Z,15.82
2023-01-20T13:45:27.815Z,15.52
2023-01-20T13:48:24.829Z,15.63
2023-01-20T13:51:41.567Z,15.75
2023-01-20T13:54:49.028Z,15.76
2023-01-20T13:57:41.783Z,15.64
2023-01-20T14:00:26.890Z,15.47
2023-01-20T14:03:19.400Z,15.35
2023-01-20T14:06:06.066Z,15.38
2023-01-20T14:08:51.893Z,15.25
2023-01-20T14:11:35.798Z,14.95
2023-01-20T14:14:21.045Z,15.27
2023-01-20T14:17:16.278Z,14.98
2023-01-20T14:20:00.494Z,14.46
2023-01-20T14:22:44.472Z,14.16
2023-01-20T14:25:28.490Z,14.19
2023-01-20T14:28:21.466Z,14.22
2023-01-20T14:31:24.976Z,13.83
2023-01-20T14:34:26.960Z,14.18
2023-01-20T14:37:24.444Z,14.02
2023-01-20T14:40:21.225Z,13.90
2023-01-20T14:43:14.526Z,13.90
2023-01-20T14:45:58.636Z,13.75
2023-01-20T14:48:43.782Z,13.82
2023-01-20T14:51:29.147Z,13.71
2023-01-20T14:54:36.617Z,13.67
2023-01-20T14:57:23.822Z,13.63
2023-01-20T15:00:17.894Z,13.58
2023-01-20T15:03:11.268Z,13.85
2023-01-20T15:05:58.320Z,13.62
2023-01-20T15:09:05.092Z,13.57
2023-01-20T15:11:49.779Z,13.70
2023-01-20T15:14:34.282Z,13.69
2023-01-20T15:17:20.424Z,13.45
2023-01-20T15:20:04.378Z,13.43
2023-01-20T15:22:50.884Z,13.31
2023-01-20T15:25:38.664Z,12.90
2023-01-20T15:28:27.045Z,13.19
2023-01-20T15:31:15.039Z,12.95
2023-01-20T15:33:59.001Z,13.24
2023-01-20T15:36:42.927Z,13.29
2023-01-20T15:39:30.407Z,13.60
2023-01-20T15:42:18.556Z,13.13
2023-01-20T15:45:05.690Z,13.20
2023-01-20T15:47:49.984Z,13.12
2023-01-20T15:50:33.955Z,13.30
2023-01-20T15:53:17.864Z,13.45
2023-01-20T15:56:03.520Z,13.07
2023-01-20T15:58:49.151Z,13.28
2023-01-20T16:01:33.103Z,13.28
2023-01-20T16:04:17.257Z,12.96
2023-01-20T16:07:01.358Z,13.20
2023-01-20T16:09:46.825Z,12.89
2023-01-20T16:12:31.016Z,12.68
2023-01-20T16:15:18.424Z,13.22
2023-01-20T16:18:02.679Z,13.40
2023-01-20T16:20:49.835Z,13.28
2023-01-20T16:23:33.842Z,12.85
2023-01-20T16:26:23.060Z,13.28
2023-01-20T16:29:07.152Z,12.88
2023-01-20T16:31:52.884Z,13.01
2023-01-20T16:34:36.949Z,12.92
2023-01-20T16:37:20.792Z,12.77
2023-01-20T16:40:04.829Z,12.65
2023-01-20T16:42:49.343Z,12.92
2023-01-20T16:45:34.711Z,13.08
2023-01-20T16:48:20.006Z,13.02
2023-01-20T16:51:05.570Z,12.80
2023-01-20T16:53:49.447Z,12.97
2023-01-20T16:56:34.040Z,12.83
2023-01-20T16:59:18.490Z,12.66
2023-01-20T17:02:02.314Z,12.56
2023-01-20T17:04:47.552Z,12.54
2023-01-20T17:07:31.447Z,12.66
2023-01-20T17:10:15.855Z,12.02
2023-01-20T17:13:00.253Z,12.23
2023-01-20T17:15:44.526Z,12.38
2023-01-20T17:18:28.400Z,12.26
2023-01-20T17:21:14.314Z,12.37
2023-01-20T17:24:00.458Z,11.99
2023-01-20T17:26:44.326Z,12.32
2023-01-20T17:29:28.351Z,12.44
2023-01-20T17:32:12.403Z,10.99
2023-01-20T17:34:56.454Z,12.06
2023-01-20T17:37:42.136Z,11.48
2023-01-20T17:40:26.212Z,11.46
2023-01-20T17:43:11.334Z,11.39
2023-01-20T17:45:55.406Z,11.83
2023-01-20T17:48:40.161Z,12.04
2023-01-20T17:51:25.769Z,12.17
2023-01-20T17:54:11.660Z,12.36
2023-01-20T17:56:55.631Z,12.14
2023-01-20T17:59:39.583Z,12.25
2023-01-20T18:02:23.974Z,12.09
2023-01-20T18:05:08.628Z,11.87
2023-01-20T18:07:52.652Z,11.77
2023-01-20T18:10:38.050Z,11.59
2023-01-20T18:13:22.215Z,11.71
2023-01-20T18:16:07.337Z,11.71
2023-01-20T18:18:52.077Z,11.53
2023-01-20T18:21:37.921Z,11.77
2023-01-20T18:24:22.050Z,11.47
2023-01-20T18:27:08.282Z,11.63
2023-01-20T18:29:52.378Z,11.32
2023-01-20T18:32:36.362Z,11.18
2023-01-20T18:35:20.749Z,11.41
2023-01-20T18:38:04.764Z,11.48
2023-01-20T18:40:49.007Z,11.32
2023-01-20T18:43:34.666Z,11.40
2023-01-20T18:46:19.827Z,11.51
2023-01-20T18:49:06.853Z,11.62
2023-01-20T18:51:52.221Z,11.66
2023-01-20T18:54:38.955Z,11.46
2023-01-20T18:57:23.715Z,11.49
2023-01-20T19:00:12.126Z,11.51
2023-01-20T19:02:56.282Z,11.53
2023-01-20T19:05:40.619Z,11.69
2023-01-20T19:08:24.710Z,11.68
2023-01-20T19:11:10.895Z,11.65
2023-01-20T19:13:55.890Z,11.51
2023-01-20T19:16:45.497Z,10.44
2023-01-20T19:19:30.409Z,11.62
2023-01-20T19:22:14.570Z,11.55
2023-01-20T19:24:59.230Z,11.56
2023-01-20T19:27:44.070Z,11.61
2023-01-20T19:30:29.233Z,11.64
2023-01-20T19:33:17.495Z,11.71
2023-01-20T19:36:04.060Z,11.44
2023-01-20T19:38:49.725Z,11.32
2023-01-20T19:41:37.133Z,11.12
2023-01-20T19:44:22.285Z,11.26
2023-01-20T19:47:06.536Z,10.33
2023-01-20T19:49:51.840Z,11.34
2023-01-20T19:52:36.760Z,11.45
2023-01-20T19:55:20.819Z,11.19
2023-01-20T19:58:08.139Z,11.36
2023-01-20T20:00:53.668Z,11.15
2023-01-20T20:03:39.906Z,11.17
2023-01-20T20:06:28.764Z,11.07
2023-01-20T20:09:15.983Z,11.16
2023-01-20T20:12:06.453Z,10.97
2023-01-20T20:14:52.568Z,10.86
2023-01-20T20:17:37.871Z,10.74
2023-01-20T20:20:22.545Z,10.71
2023-01-20T20:23:08.260Z,10.48
2023-01-20T20:25:56.773Z,10.66
2023-01-20T20:28:41.117Z,10.79
2023-01-20T20:31:30.023Z,10.91
2023-01-20T20:34:16.180Z,10.89
2023-01-20T20:37:00.277Z,11.16
2023-01-20T20:39:46.082Z,11.09
2023-01-20T20:42:30.465Z,11.10
2023-01-20T20:45:14.565Z,11.34
2023-01-20T20:47:58.898Z,11.39
2023-01-20T20:50:43.153Z,11.39
2023-01-20T20:53:27.192Z,11.62
2023-01-20T20:56:14.612Z,11.39
2023-01-20T20:59:03.148Z,11.20
2023-01-20T21:01:48.671Z,11.50
2023-01-20T21:04:33.319Z,11.28
2023-01-20T21:07:17.495Z,11.20
2023-01-20T21:10:01.639Z,11.45
2023-01-20T21:12:48.935Z,11.42
2023-01-20T21:15:34.669Z,11.39
2023-01-20T21:18:18.507Z,11.43
2023-01-20T21:21:03.596Z,11.46
2023-01-20T21:23:51.589Z,11.16
2023-01-20T21:26:35.490Z,11.42
2023-01-20T21:29:20.837Z,10.73
2023-01-20T21:32:04.710Z,9.69
2023-01-20T21:34:48.665Z,9.49
2023-01-20T21:37:32.519Z,8.91
2023-01-20T21:40:16.785Z,8.53
2023-01-20T21:43:28.703Z,8.69
2023-01-20T21:46:13.029Z,8.46
2023-01-20T21:49:14.564Z,8.35
2023-01-20T21:52:16.129Z,8.09
2023-01-20T21:55:00.008Z,8.29
2023-01-20T21:57:44.050Z,8.50
2023-01-20T22:00:29.712Z,8.56
2023-01-20T22:03:15.027Z,9.01
2023-01-20T22:05:58.785Z,9.24
2023-01-20T22:08:42.555Z,8.82
2023-01-20T22:11:26.796Z,8.87
2023-01-20T22:14:11.319Z,8.47
2023-01-20T22:16:55.164Z,8.17
2023-01-20T22:19:40.736Z,8.10
2023-01-20T22:22:24.738Z,8.25
2023-01-20T22:25:09.171Z,8.64
2023-01-20T22:27:52.971Z,8.70
2023-01-20T22:30:36.759Z,8.94
2023-01-20T22:33:20.609Z,8.73
2023-01-20T22:36:06.650Z,8.72
2023-01-20T22:38:51.920Z,8.55
2023-01-20T22:41:35.903Z,7.96
2023-01-20T22:44:19.711Z,8.04
2023-01-20T22:47:05.797Z,8.43
2023-01-20T22:49:49.688Z,8.29
2023-01-20T22:52:34.914Z,7.99
2023-01-20T22:55:18.674Z,8.04
2023-01-20T22:58:02.621Z,7.94
2023-01-20T23:00:47.324Z,8.00
2023-01-20T23:03:31.341Z,8.09
2023-01-20T23:06:15.959Z,7.91
2023-01-20T23:09:01.429Z,7.93
2023-01-20T23:11:45.469Z,7.82
2023-01-20T23:14:43.133Z,7.70
2023-01-20T23:17:27.417Z,7.77
2023-01-20T23:20:12.632Z,7.68
2023-01-20T23:22:56.468Z,7.70
2023-01-20T23:25:41.638Z,7.62
2023-01-20T23:28:25.393Z,7.12
2023-01-20T23:31:11.058Z,7.40
2023-01-20T23:33:55.244Z,7.32
2023-01-20T23:36:39.190Z,7.33
2023-01-20T23:39:23.018Z,7.16
2023-01-20T23:42:08.180Z,7.08
2023-01-20T23:44:52.028Z,7.14
2023-01-20T23:47:36.066Z,7.17
2023-01-20T23:50:19.984Z,7.12
2023-01-20T23:53:03.885Z,7.12
2023-01-20T23:55:47.836Z,7.13
2023-01-20T23:58:33.191Z,7.14
